Time;durP1;ratioP1;P1;durP2;ratioP2;P2;SDS_P1;SDS_P2;PMS_P1;PMS_P2;Temp;Humidity;BMP_temperature;BMP_pressure;BME280_temperature;BME280_humidity;BME280_pressure;Samples;Min_cycle;Max_cycle;Signal;HPM_P1;HPM_P2
2022/12/03 00:02:11;;;;;;;32.75;16.80;;;;;;;;;;5048296;28;20519;-83
2022/12/03 00:04:37;;;;;;;33.67;17.20;;;;;;;;;;5045851;28;20031;-82
2022/12/03 00:07:03;;;;;;;41.00;18.27;;;;;;;;;;5061997;28;20434;-83
2022/12/03 00:09:29;;;;;;;37.13;16.23;;;;;;;;;;5054007;28;20189;-84
2022/12/03 00:11:55;;;;;;;36.22;16.25;;;;;;;;;;5046355;28;20033;-83
2022/12/03 00:14:21;;;;;;;37.28;18.50;;;;;;;;;;5040491;28;20022;-82
2022/12/03 00:16:47;;;;;;;33.53;17.80;;;;;;;;;;5041709;28;20026;-83
2022/12/03 00:19:13;;;;;;;32.70;16.20;;;;;;;;;;5050074;28;20021;-84
2022/12/03 00:21:39;;;;;;;34.88;16.23;;;;;;;;;;5046594;28;20398;-84
2022/12/03 00:24:05;;;;;;;41.95;17.60;;;;;;;;;;5058754;28;20029;-84
2022/12/03 00:26:31;;;;;;;38.88;16.92;;;;;;;;;;5051922;28;20070;-84
2022/12/03 00:28:57;;;;;;;38.40;16.95;;;;;;;;;;5059934;28;20224;-84
2022/12/03 00:31:24;;;;;;;33.40;16.90;;;;;;;;;;5057649;28;20439;-84
2022/12/03 00:33:50;;;;;;;36.97;17.23;;;;;;;;;;5059790;28;20053;-84
2022/12/03 00:36:16;;;;;;;31.27;16.67;;;;;;;;;;5058899;28;20028;-84
2022/12/03 00:38:42;;;;;;;34.92;16.27;;;;;;;;;;5060073;28;20435;-83
2022/12/03 00:41:08;;;;;;;35.60;14.93;;;;;;;;;;5041318;28;20388;-84
2022/12/03 00:43:34;;;;;;;37.25;16.00;;;;;;;;;;5039875;28;20043;-84
2022/12/03 00:46:00;;;;;;;38.67;16.88;;;;;;;;;;5039227;28;20095;-83
2022/12/03 00:48:26;;;;;;;37.13;15.57;;;;;;;;;;5039239;28;20478;-84
2022/12/03 00:50:52;;;;;;;35.40;16.27;;;;;;;;;;5057585;28;21563;-84
2022/12/03 00:53:18;;;;;;;32.55;15.80;;;;;;;;;;5056270;28;20081;-84
2022/12/03 00:55:44;;;;;;;37.20;16.90;;;;;;;;;;5044112;28;20026;-83
2022/12/03 00:58:10;;;;;;;33.25;15.80;;;;;;;;;;5040681;28;20105;-84
2022/12/03 01:00:37;;;;;;;34.13;15.13;;;;;;;;;;5039265;28;20063;-84
2022/12/03 01:03:04;;;;;;;34.55;15.52;;;;;;;;;;5039703;28;20029;-83
2022/12/03 01:05:29;;;;;;;37.75;15.82;;;;;;;;;;5038240;28;20032;-84
2022/12/03 01:07:56;;;;;;;31.13;14.30;;;;;;;;;;5050544;28;20033;-84
2022/12/03 01:10:21;;;;;;;37.60;15.38;;;;;;;;;;5047772;28;20024;-84
2022/12/03 01:12:48;;;;;;;32.67;14.55;;;;;;;;;;5059606;28;20036;-84
2022/12/03 01:15:14;;;;;;;32.20;15.15;;;;;;;;;;5059857;28;20168;-85
2022/12/03 01:17:40;;;;;;;35.78;14.90;;;;;;;;;;5048525;28;20083;-84
2022/12/03 01:20:06;;;;;;;32.85;15.45;;;;;;;;;;5038174;28;20542;-84
2022/12/03 01:22:32;;;;;;;37.85;14.85;;;;;;;;;;5038804;28;20030;-84
2022/12/03 01:24:58;;;;;;;31.52;15.13;;;;;;;;;;5038958;28;20048;-83
2022/12/03 01:27:24;;;;;;;39.65;16.85;;;;;;;;;;5038512;28;20442;-82
2022/12/03 01:29:50;;;;;;;38.00;16.40;;;;;;;;;;5043522;28;20029;-84
2022/12/03 01:32:18;;;;;;;34.13;15.27;;;;;;;;;;5040713;28;20034;-84
2022/12/03 01:34:44;;;;;;;32.17;14.38;;;;;;;;;;5040127;28;20029;-84
2022/12/03 01:37:10;;;;;;;40.10;17.30;;;;;;;;;;5038271;28;20435;-85
2022/12/03 01:39:36;;;;;;;31.35;15.57;;;;;;;;;;5038657;28;20025;-84
2022/12/03 01:42:03;;;;;;;33.28;15.68;;;;;;;;;;5045494;28;20025;-84
2022/12/03 01:44:33;;;;;;;32.22;14.93;;;;;;;;;;5047273;28;20024;-85
2022/12/03 01:47:01;;;;;;;32.22;14.60;;;;;;;;;;5053195;28;20045;-85
2022/12/03 01:49:29;;;;;;;38.15;16.15;;;;;;;;;;5041043;28;20049;-85
2022/12/03 01:51:56;;;;;;;32.72;15.38;;;;;;;;;;5040943;28;20026;-86
2022/12/03 01:54:25;;;;;;;34.22;14.57;;;;;;;;;;5041454;28;20025;-85
2022/12/03 01:56:52;;;;;;;30.90;14.90;;;;;;;;;;5044071;28;20028;-85
2022/12/03 01:59:20;;;;;;;33.30;15.77;;;;;;;;;;5053932;28;20025;-85
2022/12/03 02:01:46;;;;;;;35.50;16.45;;;;;;;;;;5054186;28;20320;-85
2022/12/03 02:04:13;;;;;;;37.40;15.85;;;;;;;;;;5060348;28;20032;-85
2022/12/03 02:06:39;;;;;;;34.63;16.00;;;;;;;;;;5060592;28;20021;-85
2022/12/03 02:09:07;;;;;;;29.20;14.30;;;;;;;;;;5041566;28;20018;-85
2022/12/03 02:11:35;;;;;;;29.05;14.25;;;;;;;;;;5040696;28;20041;-85
2022/12/03 02:14:03;;;;;;;32.88;16.23;;;;;;;;;;5038389;28;20048;-87
2022/12/03 02:16:29;;;;;;;37.20;15.95;;;;;;;;;;5039069;28;20017;-85
2022/12/03 02:18:56;;;;;;;31.88;15.05;;;;;;;;;;5037163;28;20022;-85
2022/12/03 02:21:30;;;;;;;26.30;12.57;;;;;;;;;;5038498;28;20396;-86
2022/12/03 02:24:02;;;;;;;27.88;14.45;;;;;;;;;;5041102;28;20026;-84
2022/12/03 02:26:28;;;;;;;31.08;14.57;;;;;;;;;;5036753;28;20034;-84
2022/12/03 02:28:54;;;;;;;29.70;13.05;;;;;;;;;;5037088;28;20057;-85
2022/12/03 02:31:22;;;;;;;32.28;15.70;;;;;;;;;;5038036;28;20040;-85
2022/12/03 02:33:49;;;;;;;32.35;14.63;;;;;;;;;;5052172;28;20032;-83
2022/12/03 02:36:15;;;;;;;31.13;14.00;;;;;;;;;;5056684;28;20014;-86
2022/12/03 02:38:41;;;;;;;30.05;12.70;;;;;;;;;;5057436;28;20025;-86
2022/12/03 02:41:08;;;;;;;33.45;15.18;;;;;;;;;;5038853;28;20025;-85
2022/12/03 02:43:34;;;;;;;30.98;14.93;;;;;;;;;;5039247;28;20030;-85
2022/12/03 02:46:02;;;;;;;33.80;15.13;;;;;;;;;;5060288;28;20049;-85
2022/12/03 02:48:29;;;;;;;40.45;14.77;;;;;;;;;;5046678;28;20033;-84
2022/12/03 02:50:57;;;;;;;31.63;14.38;;;;;;;;;;5048498;28;20117;-85
2022/12/03 02:53:25;;;;;;;32.13;15.10;;;;;;;;;;5039825;28;20029;-85
2022/12/03 02:55:52;;;;;;;38.88;17.42;;;;;;;;;;5056019;28;20033;-84
2022/12/03 02:58:18;;;;;;;33.10;15.13;;;;;;;;;;5047970;28;20486;-85
2022/12/03 03:00:45;;;;;;;32.50;15.93;;;;;;;;;;5038964;28;20079;-85
2022/12/03 03:03:11;;;;;;;34.60;15.25;;;;;;;;;;5039130;28;20030;-85
2022/12/03 03:05:39;;;;;;;35.03;13.98;;;;;;;;;;5040525;28;20099;-85
2022/12/03 03:08:07;;;;;;;32.72;14.77;;;;;;;;;;5046075;28;20025;-84
2022/12/03 03:10:34;;;;;;;37.63;14.57;;;;;;;;;;5038960;28;20076;-85
2022/12/03 03:13:03;;;;;;;27.75;14.48;;;;;;;;;;5037935;28;20022;-85
2022/12/03 03:15:29;;;;;;;33.65;15.48;;;;;;;;;;5036898;28;20044;-85
2022/12/03 03:17:55;;;;;;;29.95;13.65;;;;;;;;;;5043804;28;20017;-84
2022/12/03 03:20:21;;;;;;;28.75;13.93;;;;;;;;;;5056649;28;20474;-85
2022/12/03 03:22:47;;;;;;;26.02;12.25;;;;;;;;;;5055588;28;20137;-86
2022/12/03 03:25:14;;;;;;;28.98;13.57;;;;;;;;;;5040639;28;20488;-85
2022/12/03 03:27:41;;;;;;;22.42;11.77;;;;;;;;;;5043312;28;20083;-86
2022/12/03 03:30:08;;;;;;;29.63;14.48;;;;;;;;;;5056985;28;20135;-86
2022/12/03 03:32:35;;;;;;;32.92;14.55;;;;;;;;;;5037442;28;20100;-85
2022/12/03 03:35:01;;;;;;;33.10;14.70;;;;;;;;;;5050671;28;20029;-85
2022/12/03 03:37:28;;;;;;;29.42;12.98;;;;;;;;;;5053769;28;20033;-85
2022/12/03 03:39:54;;;;;;;27.30;13.13;;;;;;;;;;5042338;28;20084;-85
2022/12/03 03:42:20;;;;;;;30.90;13.45;;;;;;;;;;5062233;28;20039;-86
2022/12/03 03:44:47;;;;;;;29.35;13.52;;;;;;;;;;5055574;28;20029;-86
2022/12/03 03:47:13;;;;;;;32.15;13.60;;;;;;;;;;5050004;28;20040;-85
2022/12/03 03:49:39;;;;;;;28.17;13.50;;;;;;;;;;5046701;28;20462;-86
2022/12/03 03:52:05;;;;;;;27.05;13.63;;;;;;;;;;5055703;28;20021;-85
2022/12/03 03:54:31;;;;;;;25.98;11.20;;;;;;;;;;5038794;28;20026;-85
2022/12/03 03:56:57;;;;;;;27.90;12.45;;;;;;;;;;5046729;28;20025;-86
2022/12/03 03:59:23;;;;;;;31.48;12.80;;;;;;;;;;5055748;28;20033;-85
2022/12/03 04:01:49;;;;;;;25.27;13.07;;;;;;;;;;5058752;28;20025;-86
2022/12/03 04:04:19;;;;;;;27.25;12.68;;;;;;;;;;5042609;28;20049;-86
2022/12/03 04:06:46;;;;;;;20.55;12.00;;;;;;;;;;5053857;28;20476;-84
2022/12/03 04:09:12;;;;;;;32.00;14.40;;;;;;;;;;5046901;28;20391;-85
2022/12/03 04:14:23;;;;;;;23.02;11.52;;;;;;;;;;5043082;28;20108;-85
2022/12/03 04:16:49;;;;;;;26.52;11.75;;;;;;;;;;5044259;28;20449;-85
2022/12/03 04:19:15;;;;;;;25.85;12.50;;;;;;;;;;5044514;28;20476;-85
2022/12/03 04:24:25;;;;;;;24.20;12.10;;;;;;;;;;5053602;28;20039;-85
2022/12/03 04:29:36;;;;;;;27.27;11.98;;;;;;;;;;5044122;28;20033;-85
2022/12/03 04:37:31;;;;;;;27.02;12.70;;;;;;;;;;5041731;28;20036;-86
2022/12/03 04:39:57;;;;;;;27.08;11.85;;;;;;;;;;5051514;28;20033;-85
2022/12/03 04:42:23;;;;;;;24.08;11.38;;;;;;;;;;5057489;28;20032;-85
2022/12/03 04:44:49;;;;;;;23.50;12.23;;;;;;;;;;5044688;28;20044;-85
2022/12/03 04:47:17;;;;;;;24.83;13.00;;;;;;;;;;5063180;28;20031;-85
2022/12/03 04:49:44;;;;;;;31.45;14.85;;;;;;;;;;5050505;28;20032;-85
2022/12/03 04:52:11;;;;;;;30.17;14.00;;;;;;;;;;5064573;28;20029;-85
2022/12/03 04:54:37;;;;;;;38.80;17.23;;;;;;;;;;5057865;28;20029;-86
2022/12/03 04:57:04;;;;;;;39.80;15.93;;;;;;;;;;5041975;28;20033;-85
2022/12/03 04:59:30;;;;;;;36.17;16.75;;;;;;;;;;5060045;28;20063;-86
2022/12/03 05:01:57;;;;;;;34.13;16.73;;;;;;;;;;5054330;28;20036;-84
2022/12/03 05:04:23;;;;;;;42.38;18.08;;;;;;;;;;5084557;28;20080;-85
2022/12/03 05:06:49;;;;;;;34.55;16.50;;;;;;;;;;5066069;28;20506;-84
2022/12/03 05:09:15;;;;;;;44.85;19.17;;;;;;;;;;5048061;28;20395;-85
2022/12/03 05:11:41;;;;;;;37.33;16.20;;;;;;;;;;5044915;28;20077;-83
2022/12/03 05:14:07;;;;;;;39.00;17.50;;;;;;;;;;5045813;28;20029;-85
2022/12/03 05:16:33;;;;;;;40.60;17.58;;;;;;;;;;5043853;28;20499;-85
2022/12/03 05:18:59;;;;;;;37.10;17.05;;;;;;;;;;5043323;28;20029;-85
2022/12/03 05:21:25;;;;;;;37.03;17.70;;;;;;;;;;5056068;28;20021;-85
2022/12/03 05:23:52;;;;;;;41.95;19.45;;;;;;;;;;5044781;28;20030;-84
2022/12/03 05:26:18;;;;;;;36.80;17.02;;;;;;;;;;5059307;28;20419;-85
2022/12/03 05:28:44;;;;;;;43.13;19.20;;;;;;;;;;5042740;28;20030;-85
2022/12/03 05:31:10;;;;;;;39.33;17.80;;;;;;;;;;5044269;28;20032;-85
2022/12/03 05:33:36;;;;;;;40.97;18.15;;;;;;;;;;5048886;28;20038;-85
2022/12/03 05:36:02;;;;;;;34.22;15.70;;;;;;;;;;5040445;28;20072;-87
2022/12/03 05:38:28;;;;;;;39.00;18.35;;;;;;;;;;5044099;28;20434;-85
2022/12/03 05:40:54;;;;;;;40.47;17.98;;;;;;;;;;5051707;28;20025;-85
2022/12/03 05:43:20;;;;;;;39.78;17.75;;;;;;;;;;5052122;28;20044;-85
2022/12/03 05:45:46;;;;;;;37.15;17.63;;;;;;;;;;5056026;28;20060;-85
2022/12/03 05:48:13;;;;;;;39.53;16.50;;;;;;;;;;5067581;28;20475;-86
2022/12/03 05:50:42;;;;;;;39.30;18.20;;;;;;;;;;5042086;28;20033;-86
2022/12/03 05:53:08;;;;;;;34.33;17.05;;;;;;;;;;5045950;28;20029;-87
2022/12/03 05:55:34;;;;;;;33.58;16.35;;;;;;;;;;5062793;28;20112;-84
2022/12/03 05:58:00;;;;;;;35.90;16.35;;;;;;;;;;5060017;28;20501;-87
2022/12/03 06:00:27;;;;;;;29.27;15.68;;;;;;;;;;5058383;28;20103;-84
2022/12/03 06:02:53;;;;;;;36.33;15.25;;;;;;;;;;5063510;28;20055;-86
2022/12/03 06:05:19;;;;;;;36.20;14.95;;;;;;;;;;5047105;28;20104;-86
2022/12/03 06:07:46;;;;;;;31.80;15.35;;;;;;;;;;5041015;28;20025;-85
2022/12/03 06:10:13;;;;;;;33.55;14.10;;;;;;;;;;5048348;28;20021;-85
2022/12/03 06:12:39;;;;;;;29.55;14.20;;;;;;;;;;5064434;28;20036;-85
2022/12/03 06:15:06;;;;;;;33.30;15.35;;;;;;;;;;5047669;28;20025;-86
2022/12/03 06:17:32;;;;;;;29.48;15.50;;;;;;;;;;5065666;28;20017;-85
2022/12/03 06:19:58;;;;;;;28.25;14.07;;;;;;;;;;5068969;28;20024;-84
2022/12/03 06:22:24;;;;;;;30.30;14.95;;;;;;;;;;5062694;28;20061;-86
2022/12/03 06:24:50;;;;;;;34.22;14.93;;;;;;;;;;5052633;28;20025;-86
2022/12/03 06:27:16;;;;;;;30.83;16.05;;;;;;;;;;5054911;28;20478;-84
2022/12/03 06:29:42;;;;;;;30.58;13.40;;;;;;;;;;5060092;28;20037;-86
2022/12/03 06:32:08;;;;;;;29.48;14.68;;;;;;;;;;5045468;28;20032;-86
2022/12/03 06:34:34;;;;;;;29.63;14.63;;;;;;;;;;5053448;28;20037;-86
2022/12/03 06:37:00;;;;;;;27.75;14.02;;;;;;;;;;5039480;28;20032;-85
2022/12/03 06:39:26;;;;;;;30.23;13.52;;;;;;;;;;5043308;28;20017;-84
2022/12/03 06:41:52;;;;;;;33.17;14.82;;;;;;;;;;5049187;28;20093;-85
2022/12/03 06:44:18;;;;;;;25.58;12.65;;;;;;;;;;5048378;28;20059;-85
2022/12/03 06:46:44;;;;;;;30.80;13.93;;;;;;;;;;5059814;28;20036;-85
2022/12/03 06:49:11;;;;;;;25.85;11.98;;;;;;;;;;5064986;28;20033;-85
2022/12/03 06:51:37;;;;;;;29.13;13.73;;;;;;;;;;5062207;28;20029;-85
2022/12/03 06:54:04;;;;;;;28.17;13.93;;;;;;;;;;5064079;28;20028;-86
2022/12/03 06:56:31;;;;;;;31.10;14.48;;;;;;;;;;5044701;28;20018;-85
2022/12/03 06:58:58;;;;;;;31.00;14.10;;;;;;;;;;5045998;28;20018;-86
2022/12/03 07:01:24;;;;;;;26.00;13.10;;;;;;;;;;5041253;28;20064;-86
2022/12/03 07:03:50;;;;;;;27.75;13.55;;;;;;;;;;5042177;28;20032;-85
2022/12/03 07:06:16;;;;;;;26.73;13.60;;;;;;;;;;5035940;28;20025;-85
2022/12/03 07:08:43;;;;;;;32.45;14.63;;;;;;;;;;5035238;28;20052;-82
2022/12/03 07:11:29;;;;;;;24.27;12.93;;;;;;;;;;5034112;28;20041;-83
2022/12/03 07:13:55;;;;;;;29.27;14.43;;;;;;;;;;5034483;28;20438;-83
2022/12/03 07:16:21;;;;;;;26.70;13.05;;;;;;;;;;5048041;28;20048;-81
2022/12/03 07:18:47;;;;;;;34.85;16.10;;;;;;;;;;5035078;28;20044;-82
2022/12/03 07:21:15;;;;;;;26.42;15.35;;;;;;;;;;5033587;28;20472;-82
2022/12/03 07:23:42;;;;;;;28.55;15.02;;;;;;;;;;5045487;28;20033;-80
2022/12/03 07:26:09;;;;;;;27.08;14.07;;;;;;;;;;5053559;28;20035;-82
2022/12/03 07:28:35;;;;;;;27.35;13.20;;;;;;;;;;5035122;28;20029;-84
2022/12/03 07:31:01;;;;;;;29.50;14.27;;;;;;;;;;5035359;28;20594;-81
2022/12/03 07:33:27;;;;;;;27.55;13.25;;;;;;;;;;5033777;28;20017;-83
2022/12/03 07:35:53;;;;;;;28.33;13.32;;;;;;;;;;5032621;28;20114;-80
2022/12/03 07:38:19;;;;;;;25.90;14.18;;;;;;;;;;5034240;28;20543;-83
2022/12/03 07:40:45;;;;;;;27.48;14.07;;;;;;;;;;5034847;28;20112;-82
2022/12/03 07:43:11;;;;;;;28.73;14.32;;;;;;;;;;5036825;28;20056;-83
2022/12/03 07:45:37;;;;;;;32.45;14.23;;;;;;;;;;5037432;28;20053;-82
2022/12/03 07:48:03;;;;;;;32.20;14.40;;;;;;;;;;5038424;28;20030;-84
2022/12/03 07:50:29;;;;;;;23.45;13.27;;;;;;;;;;5037920;28;20025;-82
2022/12/03 07:52:55;;;;;;;29.48;13.52;;;;;;;;;;5042282;28;20049;-84
2022/12/03 07:55:23;;;;;;;29.40;13.43;;;;;;;;;;5037266;28;20025;-83
2022/12/03 07:57:50;;;;;;;29.17;14.15;;;;;;;;;;5038074;28;20013;-82
2022/12/03 08:00:16;;;;;;;28.17;14.00;;;;;;;;;;5037007;28;20487;-81
2022/12/03 08:02:44;;;;;;;30.30;14.27;;;;;;;;;;5037703;28;20104;-82
2022/12/03 08:05:10;;;;;;;30.67;15.43;;;;;;;;;;5037336;28;20029;-83
2022/12/03 08:07:37;;;;;;;29.67;14.80;;;;;;;;;;5037751;28;20026;-82
2022/12/03 08:10:04;;;;;;;32.05;14.40;;;;;;;;;;5038262;28;20030;-81
2022/12/03 08:12:39;;;;;;;31.20;13.60;;;;;;;;;;5047249;28;20033;-82
2022/12/03 08:15:17;;;;;;;28.20;15.00;;;;;;;;;;5050722;28;20025;-83
2022/12/03 08:17:44;;;;;;;31.23;13.50;;;;;;;;;;5052909;28;20115;-83
2022/12/03 08:20:23;;;;;;;30.52;15.00;;;;;;;;;;5041011;28;20017;-82
2022/12/03 08:22:51;;;;;;;29.42;14.07;;;;;;;;;;5040886;28;20030;-85
2022/12/03 08:25:23;;;;;;;26.67;13.00;;;;;;;;;;5051453;28;20025;-84
2022/12/03 08:27:51;;;;;;;30.23;13.90;;;;;;;;;;5063397;28;20029;-82
2022/12/03 08:30:18;;;;;;;24.45;15.40;;;;;;;;;;5043135;28;20083;-85
2022/12/03 08:32:44;;;;;;;26.63;14.32;;;;;;;;;;5049755;28;20085;-86
2022/12/03 08:35:30;;;;;;;32.42;14.40;;;;;;;;;;5054463;28;20052;-85
2022/12/03 08:37:58;;;;;;;32.33;15.50;;;;;;;;;;5060599;28;20036;-86
2022/12/03 08:40:36;;;;;;;23.98;12.32;;;;;;;;;;5045331;28;20030;-85
2022/12/03 08:43:11;;;;;;;29.67;12.90;;;;;;;;;;5049187;28;20459;-84
2022/12/03 08:45:40;;;;;;;25.48;13.65;;;;;;;;;;5053323;28;20060;-84
2022/12/03 08:48:22;;;;;;;29.35;13.27;;;;;;;;;;5045119;28;20040;-86
2022/12/03 08:50:48;;;;;;;28.77;13.25;;;;;;;;;;5058862;28;20040;-85
2022/12/03 08:53:20;;;;;;;26.70;14.20;;;;;;;;;;5063203;28;20025;-86
2022/12/03 08:55:47;;;;;;;29.48;12.98;;;;;;;;;;5055678;28;20024;-86
2022/12/03 08:58:32;;;;;;;32.22;14.13;;;;;;;;;;5061587;28;20037;-85
2022/12/03 09:01:10;;;;;;;34.15;15.02;;;;;;;;;;5047511;28;20025;-84
2022/12/03 09:03:37;;;;;;;31.45;15.57;;;;;;;;;;5044944;28;20033;-86
2022/12/03 09:06:03;;;;;;;35.50;15.70;;;;;;;;;;5061086;28;20060;-85
2022/12/03 09:08:29;;;;;;;33.88;16.05;;;;;;;;;;5064596;28;20025;-86
2022/12/03 09:10:55;;;;;;;31.85;14.75;;;;;;;;;;5048352;28;20538;-85
2022/12/03 09:13:21;;;;;;;31.88;16.20;;;;;;;;;;5060021;28;20480;-84
2022/12/03 09:15:48;;;;;;;28.58;15.00;;;;;;;;;;5048896;28;20075;-87
2022/12/03 09:18:14;;;;;;;29.88;14.55;;;;;;;;;;5043830;28;20086;-86
2022/12/03 09:20:41;;;;;;;32.97;16.70;;;;;;;;;;5049148;28;20506;-83
2022/12/03 09:23:07;;;;;;;32.30;16.67;;;;;;;;;;5065328;28;20055;-85
2022/12/03 09:25:33;;;;;;;34.20;15.73;;;;;;;;;;5047144;28;20130;-85
2022/12/03 09:27:59;;;;;;;32.17;16.15;;;;;;;;;;5042861;28;20033;-86
2022/12/03 09:30:25;;;;;;;38.00;16.73;;;;;;;;;;5041180;28;20040;-86
2022/12/03 09:32:51;;;;;;;36.58;16.15;;;;;;;;;;5042452;28;20052;-86
2022/12/03 09:35:17;;;;;;;36.42;15.13;;;;;;;;;;5058404;28;20061;-83
2022/12/03 09:37:43;;;;;;;33.90;17.10;;;;;;;;;;5061352;28;20453;-84
2022/12/03 09:40:09;;;;;;;30.48;15.77;;;;;;;;;;5051968;28;20104;-85
2022/12/03 09:42:36;;;;;;;32.33;16.35;;;;;;;;;;5045502;28;20041;-83
2022/12/03 09:45:05;;;;;;;33.45;17.25;;;;;;;;;;5050615;28;20044;-87
2022/12/03 09:47:31;;;;;;;35.80;16.08;;;;;;;;;;5062164;28;20035;-85
2022/12/03 09:49:57;;;;;;;35.45;15.60;;;;;;;;;;5046647;28;20025;-83
2022/12/03 09:52:25;;;;;;;34.00;15.90;;;;;;;;;;5046674;28;20075;-85
2022/12/03 09:54:51;;;;;;;33.50;15.63;;;;;;;;;;5043349;28;20021;-86
2022/12/03 09:57:18;;;;;;;36.30;16.42;;;;;;;;;;5041264;28;20030;-86
2022/12/03 09:59:44;;;;;;;35.35;16.33;;;;;;;;;;5044035;28;20025;-85
2022/12/03 10:02:29;;;;;;;34.38;16.17;;;;;;;;;;5062854;28;20483;-83
2022/12/03 10:04:55;;;;;;;31.13;15.32;;;;;;;;;;5065518;28;20036;-86
2022/12/03 10:07:22;;;;;;;34.35;15.38;;;;;;;;;;5063745;28;20025;-85
2022/12/03 10:09:48;;;;;;;34.05;15.68;;;;;;;;;;5058784;28;20131;-88
2022/12/03 10:12:15;;;;;;;30.67;14.40;;;;;;;;;;5043984;28;20033;-84
2022/12/03 10:14:41;;;;;;;37.70;16.75;;;;;;;;;;5044029;28;20022;-86
2022/12/03 10:17:09;;;;;;;28.15;14.57;;;;;;;;;;5043382;28;20052;-87
2022/12/03 10:19:36;;;;;;;33.80;15.40;;;;;;;;;;5041161;28;20368;-86
2022/12/03 10:22:03;;;;;;;28.88;15.25;;;;;;;;;;5043114;28;20029;-86
2022/12/03 10:24:34;;;;;;;36.63;16.80;;;;;;;;;;5042589;28;20537;-84
2022/12/03 10:27:04;;;;;;;34.67;16.23;;;;;;;;;;5040132;28;20037;-85
2022/12/03 10:29:39;;;;;;;36.00;16.92;;;;;;;;;;5046010;28;20021;-86
2022/12/03 10:32:06;;;;;;;34.72;14.98;;;;;;;;;;5058343;28;20031;-86
2022/12/03 10:34:34;;;;;;;36.70;17.08;;;;;;;;;;5062198;28;20025;-83
2022/12/03 10:37:29;;;;;;;39.33;16.33;;;;;;;;;;5061259;28;20040;-84
2022/12/03 10:40:00;;;;;;;32.80;15.75;;;;;;;;;;5040021;28;20028;-85
2022/12/03 10:42:28;;;;;;;34.47;15.95;;;;;;;;;;5046788;28;20060;-85
2022/12/03 10:45:27;;;;;;;39.67;16.75;;;;;;;;;;5040383;28;20407;-84
2022/12/03 10:48:04;;;;;;;36.45;17.50;;;;;;;;;;4995628;28;20033;-85
2022/12/03 10:50:31;;;;;;;36.92;16.05;;;;;;;;;;5021908;28;20068;-87
2022/12/03 10:52:58;;;;;;;36.42;17.20;;;;;;;;;;5003576;28;20038;-86
2022/12/03 10:55:24;;;;;;;35.20;16.27;;;;;;;;;;4982760;28;20022;-85
2022/12/03 10:57:50;;;;;;;36.45;18.20;;;;;;;;;;4984305;28;20034;-84
2022/12/03 11:00:17;;;;;;;38.80;17.38;;;;;;;;;;4985586;28;20105;-84
2022/12/03 11:02:43;;;;;;;34.50;15.30;;;;;;;;;;4981922;28;20058;-86
2022/12/03 11:05:13;;;;;;;35.78;17.08;;;;;;;;;;4998942;28;20045;-83
2022/12/03 11:07:40;;;;;;;36.90;17.13;;;;;;;;;;4984654;28;20053;-86
2022/12/03 11:10:12;;;;;;;37.90;15.82;;;;;;;;;;4983006;28;20042;-82
2022/12/03 11:12:38;;;;;;;41.87;16.40;;;;;;;;;;4984747;28;20034;-85
2022/12/03 11:15:05;;;;;;;41.85;17.50;;;;;;;;;;4987826;28;20029;-84
2022/12/03 11:17:40;;;;;;;34.45;18.35;;;;;;;;;;4998274;28;20037;-85
2022/12/03 11:20:09;;;;;;;40.83;19.60;;;;;;;;;;4996877;28;20121;-84
2022/12/03 11:22:45;;;;;;;45.70;17.92;;;;;;;;;;4990079;28;20034;-83
2022/12/03 11:25:24;;;;;;;34.38;15.63;;;;;;;;;;5053857;28;20025;-85
2022/12/03 11:28:25;;;;;;;38.90;17.55;;;;;;;;;;5062625;28;20059;-85
2022/12/03 11:30:55;;;;;;;40.28;17.23;;;;;;;;;;5043644;28;20091;-86
2022/12/03 11:33:21;;;;;;;46.80;18.92;;;;;;;;;;5040276;28;20040;-85
2022/12/03 11:36:02;;;;;;;38.53;18.95;;;;;;;;;;5043291;28;20415;-84
2022/12/03 11:38:41;;;;;;;44.47;18.80;;;;;;;;;;5040393;28;20029;-86
2022/12/03 11:41:07;;;;;;;41.63;19.30;;;;;;;;;;5040711;28;20033;-87
2022/12/03 11:43:52;;;;;;;41.70;18.08;;;;;;;;;;5042766;28;20028;-83
2022/12/03 11:46:22;;;;;;;43.40;20.13;;;;;;;;;;5061657;28;20055;-83
2022/12/03 11:48:50;;;;;;;45.17;19.33;;;;;;;;;;5076588;28;20024;-84
2022/12/03 11:51:17;;;;;;;43.45;19.15;;;;;;;;;;5081558;28;20025;-84
2022/12/03 11:53:44;;;;;;;48.97;19.10;;;;;;;;;;5055404;28;20087;-85
2022/12/03 11:56:17;;;;;;;43.45;18.98;;;;;;;;;;5041199;28;20022;-86
2022/12/03 11:58:44;;;;;;;59.92;21.60;;;;;;;;;;5040918;28;20025;-84
2022/12/03 12:01:10;;;;;;;47.78;18.80;;;;;;;;;;5040482;28;20498;-85
2022/12/03 12:03:36;;;;;;;50.03;21.20;;;;;;;;;;5044213;28;20032;-84
2022/12/03 12:06:06;;;;;;;55.55;22.67;;;;;;;;;;5041076;28;20049;-86
2022/12/03 12:08:33;;;;;;;60.10;22.58;;;;;;;;;;5056970;28;20037;-84
2022/12/03 12:10:59;;;;;;;47.78;20.45;;;;;;;;;;5060614;28;20025;-85
2022/12/03 12:13:34;;;;;;;49.92;22.75;;;;;;;;;;5060508;28;20072;-84
2022/12/03 12:16:04;;;;;;;48.45;22.60;;;;;;;;;;5060595;28;20024;-84
2022/12/03 12:18:47;;;;;;;41.10;19.10;;;;;;;;;;5058597;28;20047;-84
2022/12/03 12:21:32;;;;;;;62.92;22.17;;;;;;;;;;5045619;28;20028;-85
2022/12/03 12:24:18;;;;;;;54.13;23.65;;;;;;;;;;5041625;28;20040;-86
2022/12/03 12:26:50;;;;;;;53.25;20.15;;;;;;;;;;5040027;28;20026;-87
2022/12/03 12:29:16;;;;;;;59.53;26.40;;;;;;;;;;5039412;28;20029;-85
2022/12/03 12:31:42;;;;;;;60.13;23.30;;;;;;;;;;5042263;28;20042;-83
2022/12/03 12:34:11;;;;;;;59.10;25.98;;;;;;;;;;5050077;28;20036;-83
2022/12/03 12:36:37;;;;;;;53.33;22.13;;;;;;;;;;5063436;28;20075;-86
2022/12/03 12:39:07;;;;;;;56.88;25.10;;;;;;;;;;5056420;28;20026;-83
2022/12/03 12:41:33;;;;;;;58.17;22.52;;;;;;;;;;5043372;28;20025;-83
2022/12/03 12:44:00;;;;;;;58.67;24.80;;;;;;;;;;5043678;28;20155;-84
2022/12/03 12:46:26;;;;;;;60.50;23.80;;;;;;;;;;5042912;28;20072;-85
2022/12/03 12:48:53;;;;;;;61.63;24.85;;;;;;;;;;5079192;28;20483;-83
2022/12/03 12:51:19;;;;;;;61.10;25.08;;;;;;;;;;5080343;28;20316;-84
2022/12/03 12:53:45;;;;;;;67.45;25.83;;;;;;;;;;5066797;28;20047;-84
2022/12/03 12:56:17;;;;;;;52.35;23.95;;;;;;;;;;5063928;28;20025;-83
2022/12/03 12:58:43;;;;;;;62.20;25.67;;;;;;;;;;5065111;28;20021;-85
2022/12/03 13:01:19;;;;;;;60.92;23.50;;;;;;;;;;5056914;28;20479;-85
2022/12/03 13:03:49;;;;;;;59.10;25.65;;;;;;;;;;5056082;28;20025;-82
2022/12/03 13:06:15;;;;;;;73.80;26.20;;;;;;;;;;5059346;28;20029;-82
2022/12/03 13:08:48;;;;;;;53.80;20.48;;;;;;;;;;5043150;28;20040;-83
2022/12/03 13:11:14;;;;;;;;;;;;;;;;;;5044467;28;20025;-84
2022/12/03 13:13:41;;;;;;;46.10;19.75;;;;;;;;;;5042864;28;20326;-82
2022/12/03 13:16:07;;;;;;;59.08;22.85;;;;;;;;;;5050248;28;20030;-82
2022/12/03 13:18:38;;;;;;;63.72;24.50;;;;;;;;;;5053883;28;20037;-88
2022/12/03 13:21:13;;;;;;;56.22;24.25;;;;;;;;;;5055234;28;20022;-85
2022/12/03 13:23:39;;;;;;;55.95;23.17;;;;;;;;;;5054363;28;20126;-85
2022/12/03 13:26:14;;;;;;;54.95;22.23;;;;;;;;;;5045754;28;20435;-84
2022/12/03 13:28:41;;;;;;;62.17;23.35;;;;;;;;;;5045823;28;20029;-85
2022/12/03 13:31:27;;;;;;;56.90;24.10;;;;;;;;;;5045894;28;20124;-84
2022/12/03 13:33:53;;;;;;;66.05;26.17;;;;;;;;;;5042987;28;20057;-83
2022/12/03 13:36:22;;;;;;;59.55;25.30;;;;;;;;;;5054274;28;20040;-84
2022/12/03 13:38:48;;;;;;;54.42;24.65;;;;;;;;;;5065486;28;20032;-87
2022/12/03 13:42:37;;;;;;;63.75;21.55;;;;;;;;;;5054261;28;20017;-88
2022/12/03 13:44:02;;;;;;;56.50;22.65;;;;;;;;;;5045819;28;20033;-86
2022/12/03 13:46:32;;;;;;;68.45;27.60;;;;;;;;;;5043029;28;20041;-87
2022/12/03 13:48:58;;;;;;;58.40;23.63;;;;;;;;;;5085901;28;20039;-85
2022/12/03 13:51:28;;;;;;;66.35;25.25;;;;;;;;;;5081807;28;20025;-87
2022/12/03 13:53:55;;;;;;;68.38;28.13;;;;;;;;;;5059126;28;20034;-87
2022/12/03 13:56:21;;;;;;;60.35;22.88;;;;;;;;;;5054757;28;20029;-87
2022/12/03 13:59:03;;;;;;;60.33;26.55;;;;;;;;;;5001159;28;20111;-86
2022/12/03 14:01:29;;;;;;;59.28;26.08;;;;;;;;;;5044770;28;20021;-87
2022/12/03 14:03:55;;;;;;;62.05;25.50;;;;;;;;;;5041946;28;20022;-86
2022/12/03 14:06:21;;;;;;;64.70;23.20;;;;;;;;;;5051563;28;20049;-86
2022/12/03 14:08:47;;;;;;;57.75;22.25;;;;;;;;;;5054826;28;20057;-85
2022/12/03 14:12:24;;;;;;;63.50;26.30;;;;;;;;;;5046889;28;20488;-87
2022/12/03 14:13:59;;;;;;;57.78;22.83;;;;;;;;;;5050092;28;20044;-88
2022/12/03 14:16:25;;;;;;;58.25;24.85;;;;;;;;;;5049398;28;20025;-86
2022/12/03 14:18:52;;;;;;;58.72;26.48;;;;;;;;;;5059432;28;20483;-86
2022/12/03 14:21:17;;;;;;;58.90;27.33;;;;;;;;;;5055582;28;20487;-85
2022/12/03 14:23:44;;;;;;;61.55;24.95;;;;;;;;;;5048010;28;20504;-88
2022/12/03 14:26:10;;;;;;;60.88;24.98;;;;;;;;;;5048091;28;20170;-85
2022/12/03 14:28:36;;;;;;;53.47;23.90;;;;;;;;;;5047529;28;20029;-85
2022/12/03 14:31:02;;;;;;;58.88;25.92;;;;;;;;;;5055703;28;20029;-87
2022/12/03 14:33:28;;;;;;;58.40;26.02;;;;;;;;;;5041758;28;20059;-86
2022/12/03 14:35:55;;;;;;;61.10;25.58;;;;;;;;;;5047264;28;20021;-87
2022/12/03 14:38:21;;;;;;;58.67;23.67;;;;;;;;;;5047989;28;20037;-87